Dreamer — V7SV8 — position and weather

sailwx.info

Track history (hours):
 
Tides and Currents Weather Stations Pressure Air Temp Water Temp Dewpoint Dewpoint Depression Visibility Wind Speed Wind Dir Waves Ship Positions

Dreamer

Last reported at 2017-Sep-25 19:41 UTC. Time now 2017-Nov-21 06:00 UTC.
Position N 26°05' W 080°11'.
Warning: this ship's position is 56 days out of date.

Length 41 m; draft 2.4 m.

Type: Pleasure craft. MMSI: 538070685.

Date/timePositionNaut miles runAvg speedWind from/ knotsBaromVisibWave heightAir tempDewpointWater temp
2017-Sep-25 19:41N 26°05' W 080°11'0 0.1
2017-Sep-25 19:23N 26°05' W 080°11'0 0.1
2017-Sep-25 19:00N 26°05' W 080°11'0 0.0
2017-Sep-25 18:29N 26°05' W 080°11'1 2.0
2017-Sep-25 18:00N 26°06' W 080°10'2 3.7
2017-Sep-25 17:31N 26°07' W 080°09'2 3.2
2017-Sep-25 17:00N 26°07' W 080°07'0 0.5
2017-Sep-25 16:29N 26°07' W 080°07'2 4.8
2017-Sep-25 16:01N 26°06' W 080°05'1 3.0
2017-Sep-25 15:31N 26°05' W 080°03'1 2.0
2017-Sep-25 14:56N 26°07' W 080°03'2 5.6
2017-Sep-25 14:30N 26°09' W 080°03'4 7.8
2017-Sep-25 14:00N 26°13' W 080°03'43 7.9
2017-Sep-25 08:37N 26°55' W 079°60'1 8.8
2017-Sep-25 08:31N 26°56' W 079°60'  
2017-Sep-20 12:35N 40°36' W 074°03'111.5
2017-Sep-20 12:30N 40°37' W 074°03'4 8.5
2017-Sep-20 12:01N 40°41' W 074°01'4 8.3
2017-Sep-20 11:30N 40°44' W 073°58'5 8.2
2017-Sep-20 10:54N 40°48' W 073°54'  
Track history (hours):
 
Tides and Currents Weather Stations Pressure Air Temp Water Temp Dewpoint Dewpoint Depression Visibility Wind Speed Wind Dir Waves Ship Positions

Dreamer

Last reported at 2017-Sep-25 19:41 UTC. Time now 2017-Nov-21 06:00 UTC.
Position N 26°05' W 080°11'.
Warning: this ship's position is 56 days out of date.

Length 41 m; draft 2.4 m.

Type: Pleasure craft. MMSI: 538070685.

Date/timePositionNaut miles runAvg speedWind from/ knotsBaromVisibWave heightAir tempDewpointWater temp
2017-Sep-25 19:41N 26°05' W 080°11'0 0.1
2017-Sep-25 19:23N 26°05' W 080°11'0 0.1
2017-Sep-25 19:00N 26°05' W 080°11'0 0.0
2017-Sep-25 18:29N 26°05' W 080°11'1 2.0
2017-Sep-25 18:00N 26°06' W 080°10'2 3.7
2017-Sep-25 17:31N 26°07' W 080°09'2 3.2
2017-Sep-25 17:00N 26°07' W 080°07'0 0.5
2017-Sep-25 16:29N 26°07' W 080°07'2 4.8
2017-Sep-25 16:01N 26°06' W 080°05'1 3.0
2017-Sep-25 15:31N 26°05' W 080°03'1 2.0
2017-Sep-25 14:56N 26°07' W 080°03'2 5.6
2017-Sep-25 14:30N 26°09' W 080°03'4 7.8
2017-Sep-25 14:00N 26°13' W 080°03'43 7.9
2017-Sep-25 08:37N 26°55' W 079°60'1 8.8
2017-Sep-25 08:31N 26°56' W 079°60'  
2017-Sep-20 12:35N 40°36' W 074°03'111.5
2017-Sep-20 12:30N 40°37' W 074°03'4 8.5
2017-Sep-20 12:01N 40°41' W 074°01'4 8.3
2017-Sep-20 11:30N 40°44' W 073°58'5 8.2
2017-Sep-20 10:54N 40°48' W 073°54'  

Dump ship's entire track history